Time;durP1;ratioP1;P1;durP2;ratioP2;P2;SDS_P1;SDS_P2;PMS_P1;PMS_P2;Temp;Humidity;BMP_temperature;BMP_pressure;BME280_temperature;BME280_humidity;BME280_pressure;Samples;Min_cycle;Max_cycle;Signal;HPM_P1;HPM_P2
2021/03/10 00:00:27;;;;;;;;;;;;;;;-3.76;78.60;101636.53;5074529;28;20043;-66
2021/03/10 00:02:52;;;;;;;16.00;9.00;;;;;;;-3.77;79.14;101635.69;5074059;28;19912;-66
2021/03/10 00:05:18;;;;;;;21.45;10.40;;;;;;;-3.80;78.89;101634.91;5073968;28;20048;-66
2021/03/10 00:07:44;;;;;;;16.25;9.43;;;;;;;-3.82;79.34;101633.22;5073730;28;20071;-66
2021/03/10 00:10:11;;;;;;;20.05;8.68;;;;;;;-3.85;79.05;101633.28;5072936;28;20526;-66
2021/03/10 00:12:37;;;;;;;17.25;9.13;;;;;;;-3.86;79.13;101636.81;5073717;28;20032;-66
2021/03/10 00:15:04;;;;;;;23.38;10.82;;;;;;;-3.83;79.66;101636.72;5073998;28;20067;-66
2021/03/10 00:17:29;;;;;;;18.10;7.85;;;;;;;-3.84;79.50;101639.34;5072559;28;20044;-66
2021/03/10 00:19:54;;;;;;;17.30;7.50;;;;;;;-3.89;78.85;101636.06;5073787;28;20425;-67
2021/03/10 00:22:20;;;;;;;16.00;8.23;;;;;;;-3.83;78.94;101641.94;5073783;28;20296;-67
2021/03/10 00:24:45;;;;;;;16.90;7.90;;;;;;;-3.87;78.39;101642.91;5073652;28;20427;-66
2021/03/10 00:27:23;;;;;;;16.70;8.05;;;;;;;-3.90;78.65;101650.00;5072564;28;20040;-66
2021/03/10 00:29:53;;;;;;;14.93;8.13;;;;;;;-3.92;78.67;101642.22;5072595;28;20416;-66
2021/03/10 00:32:19;;;;;;;15.30;8.88;;;;;;;-3.98;78.43;101634.59;5072566;28;20036;-66
2021/03/10 00:34:45;;;;;;;;;;;;;;;-4.01;78.47;101637.28;5072960;28;20032;-67
2021/03/10 00:37:10;;;;;;;15.32;7.88;;;;;;;-4.09;78.33;101629.69;5072464;28;19917;-67
2021/03/10 00:39:35;;;;;;;15.73;7.07;;;;;;;-4.13;78.90;101632.44;5072089;28;20048;-67
2021/03/10 00:42:01;;;;;;;19.47;7.27;;;;;;;-4.11;79.26;101635.88;5055890;28;20302;-66
2021/03/10 00:44:26;;;;;;;15.15;8.70;;;;;;;-4.14;79.22;101641.19;5073295;28;20287;-66
2021/03/10 00:46:51;;;;;;;17.17;7.53;;;;;;;-4.10;79.17;101640.16;5071726;28;20131;-66
2021/03/10 00:49:17;;;;;;;14.53;7.90;;;;;;;-4.06;79.47;101639.19;5072876;28;20317;-66
2021/03/10 00:51:42;;;;;;;14.88;8.20;;;;;;;-4.06;79.21;101644.41;5055586;28;20036;-66
2021/03/10 00:54:07;;;;;;;15.30;8.27;;;;;;;-4.07;79.01;101637.50;5038871;28;20070;-66
2021/03/10 00:56:33;;;;;;;14.63;8.40;;;;;;;-4.05;79.26;101641.75;5055503;28;20048;-66
2021/03/10 00:58:58;;;;;;;15.53;8.63;;;;;;;-4.12;79.52;101640.25;5055281;28;20297;-66
2021/03/10 01:01:23;;;;;;;15.10;8.17;;;;;;;-4.10;79.14;101638.44;5072999;28;20040;-66
2021/03/10 01:03:48;;;;;;;13.93;7.40;;;;;;;-4.11;78.95;101638.47;5072962;28;20286;-66
2021/03/10 01:06:14;;;;;;;14.27;8.00;;;;;;;-4.10;78.74;101635.84;5072902;28;20029;-66
2021/03/10 01:08:39;;;;;;;13.55;7.47;;;;;;;-4.07;79.03;101638.34;5038160;28;20056;-66
2021/03/10 01:11:04;;;;;;;13.98;8.45;;;;;;;-4.12;78.63;101635.03;5072736;28;20039;-66
2021/03/10 01:13:30;;;;;;;16.85;8.43;;;;;;;-4.10;78.84;101643.66;5038527;28;20130;-66
2021/03/10 01:15:56;;;;;;;17.63;7.88;;;;;;;-4.09;78.75;101645.34;5055233;28;20048;-66
2021/03/10 01:18:21;;;;;;;17.00;7.55;;;;;;;-4.10;78.69;101634.97;5038048;28;20036;-66
2021/03/10 01:20:46;;;;;;;16.93;7.80;;;;;;;-4.11;77.97;101641.09;5072736;28;20154;-66
2021/03/10 01:23:11;;;;;;;13.23;7.67;;;;;;;-4.15;78.60;101640.31;5072606;28;20361;-66
2021/03/10 01:25:37;;;;;;;16.47;7.97;;;;;;;-4.18;79.07;101642.19;5054960;28;21030;-66
2021/03/10 01:28:02;;;;;;;14.87;8.83;;;;;;;-4.19;79.16;101641.31;5054568;28;20765;-66
2021/03/10 01:30:28;;;;;;;15.50;8.90;;;;;;;-4.12;79.38;101634.16;5072364;28;20072;-66
2021/03/10 01:32:56;;;;;;;12.77;7.40;;;;;;;-4.10;79.17;101634.97;5054880;28;20063;-66
2021/03/10 01:35:21;;;;;;;16.25;8.90;;;;;;;-4.11;78.65;101635.88;5054690;28;20082;-66
2021/03/10 01:37:46;;;;;;;16.30;8.27;;;;;;;-4.11;78.69;101630.66;5071981;28;20032;-66
2021/03/10 01:40:14;;;;;;;14.50;8.07;;;;;;;-4.15;78.47;101640.31;5054581;28;20040;-66
2021/03/10 01:42:39;;;;;;;14.82;8.57;;;;;;;-4.16;78.79;101627.34;5054554;28;20116;-66
2021/03/10 01:45:06;;;;;;;17.90;8.10;;;;;;;-4.13;78.94;101622.03;5054536;28;20148;-66
2021/03/10 01:47:33;;;;;;;20.52;8.55;;;;;;;-4.14;78.64;101630.75;5071641;28;20116;-66
2021/03/10 01:49:58;;;;;;;13.75;7.53;;;;;;;-4.12;78.25;101619.38;5071849;28;20033;-66
2021/03/10 01:52:24;;;;;;;13.60;7.40;;;;;;;-4.11;78.31;101615.00;5071946;28;20094;-66
2021/03/10 01:54:49;;;;;;;18.25;8.23;;;;;;;-4.07;78.35;101621.84;5071860;28;20131;-66
2021/03/10 01:57:16;;;;;;;15.95;8.48;;;;;;;-4.03;78.47;101634.75;5053766;28;20135;-66
2021/03/10 01:59:41;;;;;;;16.17;8.63;;;;;;;-4.00;78.10;101625.97;5071552;28;20346;-66
2021/03/10 02:02:06;;;;;;;16.35;7.63;;;;;;;-4.05;78.11;101618.28;5071818;28;20039;-66
2021/03/10 02:04:32;;;;;;;13.43;7.00;;;;;;;-3.99;78.59;101614.63;5054366;28;20110;-66
2021/03/10 02:07:13;;;;;;;13.23;8.02;;;;;;;-3.95;78.44;101626.66;5071702;28;20047;-66
2021/03/10 02:10:04;;;;;;;14.13;7.68;;;;;;;-3.87;78.41;101621.19;5037203;28;20040;-66
2021/03/10 02:12:38;;;;;;;13.02;6.95;;;;;;;-3.83;77.87;101615.00;5071637;28;20687;-66
2021/03/10 02:15:41;;;;;;;16.15;7.50;;;;;;;-3.76;78.63;101615.66;5071584;28;20032;-66
2021/03/10 02:18:11;;;;;;;15.63;6.97;;;;;;;-3.68;78.67;101611.88;5046166;28;20048;-67
2021/03/10 02:20:39;;;;;;;17.38;8.35;;;;;;;-3.65;78.36;101606.56;5071470;28;20315;-66
2021/03/10 02:23:18;;;;;;;14.10;7.88;;;;;;;-3.63;78.50;101612.59;5053815;28;20093;-66
2021/03/10 02:26:21;;;;;;;14.27;7.68;;;;;;;-3.58;78.90;101611.56;5053835;28;20475;-66
2021/03/10 02:28:47;;;;;;;11.50;7.32;;;;;;;-3.52;79.07;101612.22;5071027;28;20035;-66
2021/03/10 02:31:14;;;;;;;14.30;7.05;;;;;;;-3.52;78.75;101607.00;5053511;28;20036;-67
2021/03/10 02:33:39;;;;;;;;;;;;;;;-3.49;78.35;101614.75;5071771;28;20131;-66
2021/03/10 02:36:08;;;;;;;14.07;7.20;;;;;;;-3.50;78.11;101615.63;5071371;28;20011;-67
2021/03/10 02:38:38;;;;;;;17.38;7.97;;;;;;;-3.56;77.77;101613.22;5070855;28;20570;-66
2021/03/10 02:41:04;;;;;;;14.50;8.23;;;;;;;-3.64;78.13;101604.81;5071233;28;20454;-67
2021/03/10 02:43:29;;;;;;;;;;;;;;;-3.70;78.25;101610.22;5071670;28;20070;-67
2021/03/10 02:45:55;;;;;;;15.52;7.10;;;;;;;-3.70;77.97;101615.44;5071197;28;19960;-67
2021/03/10 02:48:22;;;;;;;16.58;8.57;;;;;;;-3.75;78.63;101615.59;5070750;28;20051;-67
2021/03/10 02:50:49;;;;;;;13.48;6.75;;;;;;;-3.70;78.46;101613.69;5053253;28;20032;-67
2021/03/10 02:53:16;;;;;;;14.00;7.72;;;;;;;-3.80;79.01;101620.09;5053448;28;20047;-66
2021/03/10 02:55:41;;;;;;;14.57;8.73;;;;;;;-3.71;78.94;101609.38;5053230;28;20093;-67
2021/03/10 02:58:10;;;;;;;20.90;7.10;;;;;;;-3.64;79.04;101615.25;5036537;28;20040;-66
2021/03/10 03:00:37;;;;;;;26.33;7.30;;;;;;;-3.62;78.59;101618.66;5070910;28;20032;-66
2021/03/10 03:03:02;;;;;;;;;;;;;;;-3.67;78.51;101625.78;5053819;28;20048;-66
2021/03/10 03:05:28;;;;;;;12.50;6.95;;;;;;;-3.61;78.83;101625.56;5070834;28;20246;-66
2021/03/10 03:07:53;;;;;;;16.58;6.35;;;;;;;-3.65;78.63;101635.28;5070704;28;20039;-66
2021/03/10 03:10:28;;;;;;;15.90;7.85;;;;;;;-3.56;78.84;101631.50;5074721;28;20051;-66
2021/03/10 03:12:55;;;;;;;15.93;7.83;;;;;;;-3.54;78.62;101621.84;5057341;28;20045;-66
2021/03/10 03:15:22;;;;;;;;;;;;;;;-3.60;78.04;101616.84;5075480;28;20037;-66
2021/03/10 03:17:48;;;;;;;14.45;7.20;;;;;;;-3.54;77.93;101626.22;5074574;28;20358;-66
2021/03/10 03:20:15;;;;;;;15.13;6.75;;;;;;;-3.57;78.24;101621.13;5057316;28;20044;-66
2021/03/10 03:22:47;;;;;;;13.40;6.70;;;;;;;-3.56;78.22;101618.44;5074951;28;20036;-66
2021/03/10 03:25:15;;;;;;;14.88;7.13;;;;;;;-3.56;78.17;101621.06;5074846;28;20032;-66
2021/03/10 03:27:42;;;;;;;15.45;7.75;;;;;;;-3.52;78.41;101622.66;5074447;28;20048;-66
2021/03/10 03:30:09;;;;;;;13.40;6.32;;;;;;;-3.48;78.40;101618.22;5074650;28;20047;-66
2021/03/10 03:32:36;;;;;;;12.80;7.22;;;;;;;-3.49;77.90;101603.44;5056933;28;20037;-66
2021/03/10 03:35:02;;;;;;;11.90;6.13;;;;;;;-3.47;78.10;101601.63;5074639;28;20127;-66
2021/03/10 03:37:27;;;;;;;10.20;5.88;;;;;;;-3.41;77.97;101599.66;5074315;28;20119;-66
2021/03/10 03:39:53;;;;;;;12.77;5.78;;;;;;;-3.38;77.65;101603.09;5074480;28;20258;-66
2021/03/10 03:42:19;;;;;;;13.23;6.93;;;;;;;-3.42;77.20;101603.19;5056789;28;20086;-66
2021/03/10 03:44:45;;;;;;;17.30;6.80;;;;;;;-3.35;77.90;101608.19;5074416;28;20040;-66
2021/03/10 03:47:15;;;;;;;13.50;6.70;;;;;;;-3.28;77.41;101605.34;5074248;28;20029;-66
2021/03/10 03:49:48;;;;;;;11.23;5.40;;;;;;;-3.28;77.78;101601.84;5074032;28;20032;-65
2021/03/10 03:52:14;;;;;;;10.13;5.80;;;;;;;-3.15;78.14;101597.06;5056592;28;20029;-66
2021/03/10 03:54:40;;;;;;;13.48;6.28;;;;;;;-3.12;76.66;101592.56;5040140;28;20495;-66
2021/03/10 03:57:05;;;;;;;8.35;5.28;;;;;;;-3.15;76.53;101595.31;5056575;28;20127;-66
2021/03/10 03:59:31;;;;;;;10.05;5.65;;;;;;;-3.19;76.78;101597.16;5073717;28;20051;-66
2021/03/10 04:01:56;;;;;;;9.53;5.60;;;;;;;-3.10;76.55;101595.16;5074064;28;20036;-66
2021/03/10 04:04:21;;;;;;;14.18;5.95;;;;;;;-3.10;76.31;101584.69;5056618;28;20036;-66
2021/03/10 04:06:48;;;;;;;13.27;6.80;;;;;;;-3.15;76.31;101574.41;5073995;28;20059;-66
2021/03/10 04:09:14;;;;;;;13.45;6.28;;;;;;;-3.20;76.30;101569.34;5073660;28;20495;-66
2021/03/10 04:11:42;;;;;;;9.93;5.55;;;;;;;-3.12;76.21;101570.84;5073775;28;20098;-66
2021/03/10 04:14:08;;;;;;;9.25;5.95;;;;;;;-3.02;75.93;101567.84;5073731;28;20039;-66
2021/03/10 04:16:33;;;;;;;11.13;6.60;;;;;;;-3.09;75.38;101571.59;5056218;28;20458;-66
2021/03/10 04:18:58;;;;;;;9.40;6.00;;;;;;;-3.04;75.25;101574.88;5073448;28;20029;-66
2021/03/10 04:21:24;;;;;;;11.13;5.33;;;;;;;-3.04;75.51;101580.09;5072862;28;20046;-66
2021/03/10 04:23:49;;;;;;;11.37;5.77;;;;;;;-3.08;75.39;101577.66;5055994;28;20409;-66
2021/03/10 04:26:14;;;;;;;10.63;5.05;;;;;;;-3.08;75.33;101586.34;5039617;28;20119;-66
2021/03/10 04:28:40;;;;;;;10.07;5.40;;;;;;;-2.79;73.86;101587.91;5055601;28;20043;-66
2021/03/10 04:31:05;;;;;;;8.37;4.90;;;;;;;-2.78;73.50;101586.16;5055875;28;20059;-66
2021/03/10 04:33:30;;;;;;;10.83;5.30;;;;;;;-2.65;72.54;101587.38;5073613;28;20056;-66
2021/03/10 04:35:56;;;;;;;9.73;4.67;;;;;;;-2.66;72.58;101583.06;5055954;28;20275;-66
2021/03/10 04:38:21;;;;;;;11.30;4.93;;;;;;;-2.70;72.67;101589.31;5055560;28;20366;-66
2021/03/10 04:40:46;;;;;;;9.23;4.47;;;;;;;-2.67;72.40;101589.22;5055929;28;20300;-66
2021/03/10 04:43:12;;;;;;;9.55;4.90;;;;;;;-2.66;72.31;101588.31;5055710;28;20123;-66
2021/03/10 04:45:37;;;;;;;12.80;4.50;;;;;;;-2.66;72.10;101593.53;5055780;28;20044;-66
2021/03/10 04:48:03;;;;;;;9.93;5.07;;;;;;;-2.58;71.66;101596.69;5055322;28;20370;-66
2021/03/10 04:50:28;;;;;;;9.13;5.82;;;;;;;-2.60;71.73;101600.28;5071580;28;20083;-66
2021/03/10 04:52:53;;;;;;;11.27;5.00;;;;;;;-2.60;71.48;101595.94;5073311;28;20047;-66
2021/03/10 04:55:19;;;;;;;9.30;5.10;;;;;;;-2.57;71.58;101600.19;5073433;28;20798;-66
2021/03/10 04:57:44;;;;;;;12.73;4.20;;;;;;;-2.59;71.17;101591.56;5072916;28;20668;-66
2021/03/10 05:00:10;;;;;;;9.30;4.73;;;;;;;-2.69;71.72;101596.28;5073133;28;20041;-66
2021/03/10 05:02:38;;;;;;;14.32;6.13;;;;;;;-2.73;71.75;101599.06;5072213;28;20301;-66
2021/03/10 05:05:04;;;;;;;16.55;6.18;;;;;;;-2.72;71.64;101600.75;5073142;28;20036;-66
2021/03/10 05:07:30;;;;;;;8.32;5.03;;;;;;;-2.75;72.09;101604.31;5055087;28;20033;-66
2021/03/10 05:09:55;;;;;;;9.23;4.35;;;;;;;-2.76;72.00;101600.03;5072099;28;20051;-66
2021/03/10 05:12:21;;;;;;;15.68;7.15;;;;;;;-2.76;71.98;101600.03;5071996;28;20121;-66
2021/03/10 05:14:46;;;;;;;8.35;4.68;;;;;;;-2.66;71.19;101596.16;5072604;28;20378;-66
2021/03/10 05:17:11;;;;;;;10.63;4.93;;;;;;;-2.75;71.60;101596.50;5072845;28;20397;-66
2021/03/10 05:19:37;;;;;;;12.33;4.77;;;;;;;-2.76;71.53;101597.41;5072478;28;20370;-66
2021/03/10 05:22:02;;;;;;;9.23;4.50;;;;;;;-2.71;71.09;101608.53;5071743;28;20093;-65
2021/03/10 05:24:28;;;;;;;12.18;5.38;;;;;;;-2.71;70.98;101599.84;5071668;28;20286;-65
2021/03/10 05:26:53;;;;;;;7.77;4.57;;;;;;;-2.77;71.07;101593.06;5072708;28;20036;-65
2021/03/10 05:29:18;;;;;;;12.17;4.87;;;;;;;-2.73;71.06;101593.81;5072140;28;20712;-66
2021/03/10 05:31:44;;;;;;;9.00;4.72;;;;;;;-2.72;71.08;101591.13;5071471;28;20308;-66
2021/03/10 05:34:09;;;;;;;11.37;4.83;;;;;;;-2.77;70.90;101587.84;5072190;28;20076;-66
2021/03/10 05:36:36;;;;;;;14.53;4.90;;;;;;;-2.77;70.41;101578.22;5072533;28;20340;-66
2021/03/10 05:39:02;;;;;;;12.55;4.75;;;;;;;-2.66;70.66;101579.63;5072094;28;20037;-66
2021/03/10 05:41:29;;;;;;;10.35;4.53;;;;;;;-2.74;70.94;101587.72;5072390;28;20102;-66
2021/03/10 05:43:55;;;;;;;9.63;4.68;;;;;;;-2.68;70.81;101586.66;5072022;28;20459;-66
2021/03/10 05:46:20;;;;;;;7.50;4.50;;;;;;;-2.74;71.15;101586.88;5071377;28;20044;-66
2021/03/10 05:48:45;;;;;;;11.93;5.70;;;;;;;-2.76;71.19;101589.56;5070819;28;20040;-66
2021/03/10 05:51:11;;;;;;;7.72;4.32;;;;;;;-2.72;71.02;101588.53;5071207;28;20036;-65
2021/03/10 05:53:42;;;;;;;8.03;4.20;;;;;;;-2.76;71.19;101589.56;5072061;28;20033;-65
2021/03/10 05:56:07;;;;;;;9.75;4.35;;;;;;;-2.72;70.98;101593.75;5071904;28;20282;-65
2021/03/10 05:58:32;;;;;;;11.70;5.45;;;;;;;-2.67;70.50;101598.81;5071641;28;20044;-66
2021/03/10 06:00:58;;;;;;;10.60;4.77;;;;;;;-2.65;70.35;101605.69;5071861;28;20056;-65
2021/03/10 06:03:23;;;;;;;11.27;5.23;;;;;;;-2.62;70.31;101602.97;5054310;28;20298;-65
2021/03/10 06:06:03;;;;;;;7.20;3.92;;;;;;;-2.56;69.56;101610.56;5071833;28;20040;-65
2021/03/10 06:08:33;;;;;;;11.80;4.55;;;;;;;-2.52;69.48;101607.88;5070517;28;20044;-65
2021/03/10 06:11:00;;;;;;;11.13;5.57;;;;;;;-2.51;69.65;101607.78;5071569;28;20044;-65
2021/03/10 06:13:26;;;;;;;;;;;;;;;-2.45;69.71;101609.34;5072161;28;20048;-66
2021/03/10 06:15:55;;;;;;;8.38;4.30;;;;;;;-2.39;69.70;101603.84;5071695;28;19912;-66
2021/03/10 06:18:21;;;;;;;9.52;4.80;;;;;;;-2.39;70.11;101594.28;5071469;28;20056;-66
2021/03/10 06:20:47;;;;;;;11.52;4.53;;;;;;;-2.37;69.97;101591.56;5071662;28;20036;-66
2021/03/10 06:23:16;;;;;;;7.25;4.80;;;;;;;-2.30;69.33;101592.19;5070717;28;20470;-66
2021/03/10 06:25:42;;;;;;;11.02;5.30;;;;;;;-2.24;68.97;101584.97;5070665;28;20127;-66
2021/03/10 06:28:07;;;;;;;8.02;4.50;;;;;;;-2.09;69.20;101580.03;5070247;28;20174;-65
2021/03/10 06:30:38;;;;;;;10.18;5.00;;;;;;;-2.09;68.99;101580.03;5071447;28;20461;-66
2021/03/10 06:33:05;;;;;;;12.57;4.70;;;;;;;-2.06;69.12;101585.16;5053870;28;20577;-65
2021/03/10 06:35:32;;;;;;;11.23;5.32;;;;;;;-1.95;68.26;101586.41;5053860;28;20048;-66
2021/03/10 06:38:11;;;;;;;10.38;5.22;;;;;;;-1.78;67.48;101575.28;5070805;28;20040;-65
2021/03/10 06:40:47;;;;;;;12.60;4.70;;;;;;;-1.64;66.00;101571.22;5053691;28;20029;-66
2021/03/10 06:43:12;;;;;;;7.82;5.00;;;;;;;-1.43;65.78;101578.19;5071226;28;20290;-66
2021/03/10 06:45:37;;;;;;;13.32;5.03;;;;;;;-1.19;64.11;101565.81;5071334;28;20615;-66
2021/03/10 06:48:03;;;;;;;8.47;5.03;;;;;;;-0.76;64.08;101574.38;5053344;28;20040;-67
2021/03/10 06:50:37;;;;;;;9.10;4.60;;;;;;;-0.50;62.33;101577.59;5071084;28;20036;-66
2021/03/10 06:53:03;;;;;;;8.88;4.50;;;;;;;-0.69;62.54;101577.59;5053624;28;20052;-66
2021/03/10 06:55:45;;;;;;;11.20;4.65;;;;;;;-0.82;62.32;101579.03;5071255;28;20347;-67
2021/03/10 06:58:20;;;;;;;12.02;4.72;;;;;;;-0.57;61.08;101582.25;5053320;28;20115;-67
2021/03/10 07:00:45;;;;;;;8.43;4.47;;;;;;;-0.66;61.03;101574.81;5053410;28;20131;-66
2021/03/10 07:03:11;;;;;;;8.07;4.00;;;;;;;0.23;71.79;101578.47;5053483;28;20127;-67
2021/03/10 07:05:36;;;;;;;11.45;4.93;;;;;;;0.64;61.38;101583.44;5071132;28;20409;-66
2021/03/10 07:08:05;;;;;;;7.37;5.20;;;;;;;0.80;61.12;101576.47;5070824;28;20060;-66
2021/03/10 07:10:31;;;;;;;8.93;4.55;;;;;;;0.72;59.03;101578.63;5053390;28;20397;-67
2021/03/10 07:12:58;;;;;;;8.20;4.17;;;;;;;0.95;56.18;101587.97;5070982;28;20032;-67
2021/03/10 07:15:24;;;;;;;7.20;4.35;;;;;;;0.68;58.65;101603.38;5070903;28;20422;-66
2021/03/10 07:17:50;;;;;;;12.23;5.88;;;;;;;0.72;57.54;101598.81;5070696;28;20135;-65
2021/03/10 07:20:16;;;;;;;7.30;4.35;;;;;;;0.69;57.32;101597.19;5071005;28;20050;-65
2021/03/10 07:22:47;;;;;;;;;;;;;;;1.07;56.82;101591.72;5071397;28;20404;-66
2021/03/10 07:25:22;;;;;;;11.23;5.43;;;;;;;0.75;56.39;101589.00;5053415;28;19913;-66
2021/03/10 07:27:50;;;;;;;8.07;4.68;;;;;;;0.83;55.31;101589.44;5070623;28;20028;-66
2021/03/10 07:30:16;;;;;;;11.88;5.22;;;;;;;0.79;55.67;101593.16;5075848;28;20108;-68
2021/03/10 07:32:42;;;;;;;11.07;5.68;;;;;;;0.69;55.32;101591.94;5070466;28;20086;-68
2021/03/10 07:35:10;;;;;;;11.35;4.80;;;;;;;1.05;56.02;101597.09;5036746;28;20044;-68
2021/03/10 07:37:38;;;;;;;10.88;4.13;;;;;;;1.22;55.85;101608.50;5070483;28;20044;-68
2021/03/10 07:40:13;;;;;;;10.88;5.10;;;;;;;1.14;55.27;101606.25;5070764;28;20062;-68
2021/03/10 07:42:51;;;;;;;10.52;5.68;;;;;;;1.01;55.12;101599.97;5070583;28;20044;-68
2021/03/10 07:45:17;;;;;;;12.18;5.03;;;;;;;0.87;55.61;101599.78;5070640;28;20434;-68
2021/03/10 07:48:09;;;;;;;12.82;5.28;;;;;;;0.65;55.23;101603.53;5052671;28;20029;-68
2021/03/10 07:50:46;;;;;;;11.25;5.78;;;;;;;0.65;55.97;101600.91;5049106;28;20241;-68
2021/03/10 07:53:12;;;;;;;12.07;5.35;;;;;;;0.51;56.32;101603.38;5036147;28;20461;-68
2021/03/10 07:55:45;;;;;;;10.50;5.13;;;;;;;0.56;56.67;101601.34;5053774;28;20037;-69
2021/03/10 07:58:10;;;;;;;10.55;5.25;;;;;;;0.86;56.26;101606.00;5039728;28;20075;-69
2021/03/10 08:00:40;;;;;;;12.57;6.90;;;;;;;0.48;55.58;101603.53;5056697;28;20059;-68
2021/03/10 08:03:06;;;;;;;10.43;4.50;;;;;;;0.75;55.96;101603.91;5056411;28;20055;-68
2021/03/10 08:05:36;;;;;;;9.70;5.95;;;;;;;0.61;55.67;101597.59;5056578;28;20446;-68
2021/03/10 08:08:09;;;;;;;10.60;5.28;;;;;;;0.81;55.65;101599.19;5056117;28;20036;-68
2021/03/10 08:10:36;;;;;;;11.07;5.22;;;;;;;0.91;56.36;101601.34;5056341;28;20041;-68
2021/03/10 08:13:12;;;;;;;;;;;;;;;0.69;55.84;101607.72;5056666;28;20033;-68
2021/03/10 08:15:38;;;;;;;11.20;5.57;;;;;;;0.78;55.77;101606.41;5073856;28;20265;-68
2021/03/10 08:18:04;;;;;;;8.80;4.80;;;;;;;0.80;55.67;101610.66;5073321;28;20040;-68
2021/03/10 08:20:37;;;;;;;10.55;6.10;;;;;;;1.03;55.65;101598.94;5056041;28;20067;-68
2021/03/10 08:23:06;;;;;;;8.80;5.30;;;;;;;0.99;56.30;101599.19;5056095;28;20404;-68
2021/03/10 08:25:34;;;;;;;12.55;6.65;;;;;;;1.10;56.62;101590.72;5055819;28;20351;-68
2021/03/10 08:28:15;;;;;;;14.88;6.18;;;;;;;1.14;56.54;101587.84;5072879;28;20273;-69
2021/03/10 08:30:42;;;;;;;10.15;5.45;;;;;;;1.13;55.71;101587.94;5055666;28;20380;-69
2021/03/10 08:33:13;;;;;;;11.30;6.05;;;;;;;1.11;56.59;101582.75;5073280;28;20400;-68
2021/03/10 08:35:46;;;;;;;9.40;5.32;;;;;;;1.44;56.44;101581.88;5056000;28;20036;-68
2021/03/10 08:38:12;;;;;;;15.85;6.05;;;;;;;1.72;55.55;101588.28;5055699;28;20028;-69
2021/03/10 08:40:37;;;;;;;9.87;5.53;;;;;;;1.37;54.98;101591.03;5074063;28;20509;-68
2021/03/10 08:43:03;;;;;;;10.65;5.95;;;;;;;1.40;55.24;101583.81;5055674;28;20540;-68
2021/03/10 08:45:35;;;;;;;14.10;6.22;;;;;;;1.51;56.06;101585.88;5073294;28;20411;-68
2021/03/10 08:48:05;;;;;;;10.52;5.68;;;;;;;1.91;55.26;101586.31;5073266;28;20377;-69
2021/03/10 08:50:40;;;;;;;13.52;6.35;;;;;;;1.98;54.47;101584.19;5071645;28;20040;-69
2021/03/10 08:53:07;;;;;;;12.27;5.95;;;;;;;1.58;55.81;101595.13;5072452;28;20052;-68
2021/03/10 08:55:34;;;;;;;12.65;6.07;;;;;;;1.79;56.12;101592.25;5072075;28;20881;-68
2021/03/10 08:58:07;;;;;;;13.32;6.35;;;;;;;1.76;56.83;101597.72;5072006;28;20067;-68
2021/03/10 09:00:33;;;;;;;14.10;6.45;;;;;;;2.43;57.08;101585.09;5072145;28;20036;-69
2021/03/10 09:03:08;;;;;;;;;;;;;;;2.11;55.21;101586.03;5072536;28;20043;-68
2021/03/10 09:05:33;;;;;;;16.00;6.63;;;;;;;2.14;55.71;101582.38;5073366;28;19923;-68
2021/03/10 09:08:08;;;;;;;15.27;6.35;;;;;;;2.39;55.35;101567.78;5070984;28;20046;-68
2021/03/10 09:10:35;;;;;;;22.48;7.40;;;;;;;2.24;56.65;101565.09;5071682;28;20052;-68
2021/03/10 09:13:10;;;;;;;19.77;6.95;;;;;;;2.82;55.17;101554.69;5071836;28;20127;-68
2021/03/10 09:15:36;;;;;;;20.00;7.97;;;;;;;2.49;55.69;101553.97;5055189;28;20044;-68
2021/03/10 09:18:12;;;;;;;15.13;7.18;;;;;;;2.32;55.58;101562.88;5071433;28;20050;-68
2021/03/10 09:20:44;;;;;;;13.25;7.28;;;;;;;2.49;55.49;101555.75;5072615;28;20028;-68
2021/03/10 09:23:12;;;;;;;16.13;7.20;;;;;;;3.07;56.92;101544.34;5071598;28;20358;-69
2021/03/10 09:25:41;;;;;;;15.02;8.00;;;;;;;2.29;56.09;101551.66;5071507;28;20063;-68
2021/03/10 09:28:16;;;;;;;18.23;8.43;;;;;;;2.41;55.20;101555.34;5071444;28;20046;-68
2021/03/10 09:31:13;;;;;;;12.90;7.90;;;;;;;2.59;55.92;101545.53;5071701;28;20824;-68
2021/03/10 09:33:40;;;;;;;15.98;8.20;;;;;;;2.78;54.01;101540.81;5071780;28;20086;-68
2021/03/10 09:36:08;;;;;;;18.42;8.85;;;;;;;2.67;54.73;101544.13;5071319;28;20031;-68
2021/03/10 09:38:42;;;;;;;17.25;8.80;;;;;;;2.66;54.47;101539.78;5055412;28;20038;-68
2021/03/10 09:41:12;;;;;;;20.20;9.68;;;;;;;2.29;56.23;101531.44;5071028;28;20028;-68
2021/03/10 09:43:40;;;;;;;15.77;8.25;;;;;;;2.64;55.31;101538.19;5071110;28;20068;-69
2021/03/10 09:46:10;;;;;;;16.90;9.15;;;;;;;2.61;54.97;101533.94;5055060;28;20033;-69
2021/03/10 09:48:41;;;;;;;14.43;7.40;;;;;;;3.02;54.06;101535.00;5070600;28;20047;-69
2021/03/10 09:51:18;;;;;;;15.32;8.65;;;;;;;2.94;54.37;101528.41;5071202;28;20056;-69
2021/03/10 09:53:51;;;;;;;17.25;8.70;;;;;;;2.89;54.15;101527.00;5070866;28;20411;-68
2021/03/10 09:56:23;;;;;;;17.23;8.38;;;;;;;2.85;54.10;101523.69;5070871;28;20024;-68
2021/03/10 09:58:59;;;;;;;18.48;8.02;;;;;;;3.35;53.43;101511.81;5054712;28;20066;-68
2021/03/10 10:01:46;;;;;;;17.65;8.68;;;;;;;3.24;53.71;101508.97;5055630;28;20035;-69
2021/03/10 10:04:16;;;;;;;18.17;7.78;;;;;;;3.26;52.60;101506.25;5070920;28;20025;-68
2021/03/10 10:06:51;;;;;;;14.50;8.02;;;;;;;3.34;52.35;101502.16;5070867;28;20032;-69
2021/03/10 10:09:19;;;;;;;16.48;8.40;;;;;;;3.29;51.73;101491.06;5054098;28;20127;-69
2021/03/10 10:11:44;;;;;;;17.60;8.43;;;;;;;3.13;53.00;101492.97;5071653;28;20432;-69
2021/03/10 10:14:09;;;;;;;16.97;8.97;;;;;;;3.40;52.39;101486.91;5070855;28;20044;-68
2021/03/10 10:16:37;;;;;;;21.70;9.13;;;;;;;3.34;52.31;101494.25;5070625;28;20418;-68
2021/03/10 10:19:04;;;;;;;23.20;9.18;;;;;;;3.48;51.87;101492.53;5069661;28;20359;-69
2021/03/10 10:21:32;;;;;;;18.02;8.18;;;;;;;3.71;51.45;101488.41;5054359;28;20365;-68
2021/03/10 10:23:59;;;;;;;19.73;9.93;;;;;;;3.89;51.45;101489.84;5071594;28;20044;-68
2021/03/10 10:26:25;;;;;;;22.55;9.70;;;;;;;4.17;51.14;101491.50;5070644;28;20473;-69
2021/03/10 10:28:51;;;;;;;33.42;14.02;;;;;;;4.27;51.53;101491.72;5070267;28;20028;-69
2021/03/10 10:31:18;;;;;;;19.90;10.38;;;;;;;4.04;51.90;101489.78;5070236;28;20120;-69
2021/03/10 10:33:44;;;;;;;21.77;10.70;;;;;;;4.23;51.80;101492.88;5070573;28;20033;-69
2021/03/10 10:36:10;;;;;;;22.38;12.50;;;;;;;4.03;52.41;101486.31;5070489;28;20369;-69
2021/03/10 10:38:39;;;;;;;19.83;11.23;;;;;;;4.83;52.55;101483.50;5070062;28;20067;-69
2021/03/10 10:41:05;;;;;;;30.80;15.83;;;;;;;5.00;52.40;101483.16;5070442;28;20048;-69
2021/03/10 10:43:34;;;;;;;30.80;14.90;;;;;;;4.74;51.70;101481.50;5070315;28;20036;-69
2021/03/10 10:46:00;;;;;;;26.02;13.57;;;;;;;4.92;52.14;101477.56;5070214;28;20045;-69
2021/03/10 10:48:32;;;;;;;28.55;14.15;;;;;;;4.82;52.24;101472.09;5069852;28;20043;-69
2021/03/10 10:51:05;;;;;;;27.67;13.13;;;;;;;4.65;53.70;101470.59;5071140;28;20045;-69
2021/03/10 10:53:49;;;;;;;25.83;13.10;;;;;;;4.62;54.05;101462.03;5053544;28;20186;-69
2021/03/10 10:56:15;;;;;;;31.27;14.38;;;;;;;4.41;54.59;101459.06;5036855;28;20105;-69
2021/03/10 10:58:41;;;;;;;24.38;13.27;;;;;;;4.85;54.21;101460.44;5053197;28;20162;-69
2021/03/10 11:01:06;;;;;;;24.85;14.57;;;;;;;4.96;53.79;101463.13;5053484;28;20039;-69
2021/03/10 11:03:34;;;;;;;29.35;14.40;;;;;;;4.82;54.90;101460.63;5053375;28;20102;-69
2021/03/10 11:06:02;;;;;;;30.10;14.77;;;;;;;4.33;56.05;101462.25;5053458;28;20089;-69
2021/03/10 11:08:34;;;;;;;25.10;12.93;;;;;;;4.63;55.18;101463.72;5037427;28;20055;-69
2021/03/10 11:10:59;;;;;;;32.23;15.80;;;;;;;4.98;54.41;101469.19;5053288;28;20416;-69
2021/03/10 11:13:25;;;;;;;30.58;14.18;;;;;;;4.74;55.13;101474.41;5036823;28;20029;-69
2021/03/10 11:15:59;;;;;;;28.85;14.48;;;;;;;4.43;56.24;101463.31;5053413;28;20068;-69
2021/03/10 11:18:45;;;;;;;27.17;13.93;;;;;;;4.81;55.79;101457.16;5070138;28;20056;-69
2021/03/10 11:21:12;;;;;;;27.67;13.45;;;;;;;4.52;57.04;101461.84;5070798;28;20353;-69
2021/03/10 11:23:37;;;;;;;28.77;15.33;;;;;;;4.64;57.25;101455.69;5053228;28;20108;-69
2021/03/10 11:26:03;;;;;;;25.83;14.47;;;;;;;4.75;57.07;101449.66;5070941;28;20033;-69
2021/03/10 11:28:30;;;;;;;27.65;13.90;;;;;;;4.75;57.59;101452.31;5052920;28;20037;-69